Time;durP1;ratioP1;P1;durP2;ratioP2;P2;SDS_P1;SDS_P2;PMS_P1;PMS_P2;Temp;Humidity;BMP_temperature;BMP_pressure;BME280_temperature;BME280_humidity;BME280_pressure;Samples;Min_cycle;Max_cycle;Signal;HPM_P1;HPM_P2
2023/05/05 00:01:18;;;;;;;;;;;;;;;18.48;nan;102220.69;5053472;28;20513;-82
2023/05/05 00:03:43;;;;;;;;;;;;;;;18.47;nan;102213.63;5052710;28;19917;-82
2023/05/05 00:06:09;;;;;;;;;;;;;;;18.48;nan;102216.09;5051070;28;19974;-82
2023/05/05 00:08:34;;;;;;;;;;;;;;;18.48;nan;102221.50;5051788;28;19917;-82
2023/05/05 00:11:00;;;;;;;;;;;;;;;18.48;nan;102217.97;5052666;28;19929;-82
2023/05/05 00:13:25;;;;;;;;;;;;;;;18.46;nan;102218.25;5056257;28;19928;-82
2023/05/05 00:15:52;;;;;;;;;;;;;;;18.45;nan;102229.38;5048903;28;19996;-82
2023/05/05 00:18:18;;;;;;;;;;;;;;;18.45;nan;102232.91;5047976;28;19917;-82
2023/05/05 00:20:43;;;;;;;;;;;;;;;18.45;nan;102237.50;5050550;28;19924;-82
2023/05/05 00:23:09;;;;;;;;;;;;;;;18.42;nan;102231.53;5033147;28;19917;-82
2023/05/05 00:25:34;;;;;;;;;;;;;;;18.41;nan;102223.66;5059056;28;20290;-82
2023/05/05 00:28:00;;;;;;;;;;;;;;;18.39;nan;102223.13;5050894;28;19924;-82
2023/05/05 00:30:26;;;;;;;;;;;;;;;18.34;nan;102212.25;5051187;28;20309;-82
2023/05/05 00:32:52;;;;;;;;;;;;;;;18.31;nan;102221.75;5052379;28;20027;-82
2023/05/05 00:35:17;;;;;;;;;;;;;;;18.31;nan;102212.75;5051285;28;20456;-82
2023/05/05 00:37:43;;;;;;;;;;;;;;;18.23;nan;102214.09;5053654;28;19942;-82
2023/05/05 00:40:08;;;;;;;;;;;;;;;18.17;nan;102215.16;5039795;28;19920;-82
2023/05/05 00:42:40;;;;;;;;;;;;;;;18.15;nan;102217.31;5047973;28;19921;-82
2023/05/05 00:45:06;;;;;;;;;;;;;;;18.16;nan;102218.13;5051144;28;19924;-81
2023/05/05 00:47:31;;;;;;;;;;;;;;;18.16;nan;102226.25;5037803;28;20199;-82
2023/05/05 00:49:57;;;;;;;;;;;;;;;18.14;nan;102217.56;5055688;28;19916;-82
2023/05/05 00:52:22;;;;;;;;;;;;;;;18.12;nan;102210.50;5052127;28;19921;-82
2023/05/05 00:54:48;;;;;;;;;;;;;;;18.08;nan;102222.13;5056292;28;19921;-82
2023/05/05 00:57:13;;;;;;;;;;;;;;;18.07;nan;102212.38;5059383;28;19920;-82
2023/05/05 00:59:39;;;;;;;;;;;;;;;18.10;nan;102214.53;5055091;28;19928;-82
2023/05/05 01:02:05;;;;;;;;;;;;;;;18.11;nan;102214.28;5055362;28;19920;-82
2023/05/05 01:04:30;;;;;;;;;;;;;;;18.11;nan;102218.88;5047656;28;20034;-82
2023/05/05 01:07:08;;;;;;;;;;;;;;;18.09;nan;102212.91;5034108;28;20275;-83
2023/05/05 01:09:33;;;;;;;;;;;;;;;18.05;nan;102211.81;5055652;28;19916;-83
2023/05/05 01:12:02;;;;;;;;;;;;;;;18.04;nan;102213.72;5058221;28;20527;-83
2023/05/05 01:14:35;;;;;;;;;;;;;;;18.06;nan;102218.88;5050867;28;20165;-83
2023/05/05 01:17:07;;;;;;;;;;;;;;;18.08;nan;102214.81;5051434;28;19925;-83
2023/05/05 01:19:42;;;;;;;;;;;;;;;18.08;nan;102216.72;5051346;28;19921;-82
2023/05/05 01:22:10;;;;;;;;;;;;;;;18.08;nan;102214.00;5046437;28;19929;-82
2023/05/05 01:25:02;;;;;;;;;;;;;;;18.08;nan;102216.72;5057564;28;19917;-82
2023/05/05 01:27:45;;;;;;;;;;;;;;;18.05;nan;102212.63;5051290;28;19921;-82
2023/05/05 01:30:26;;;;;;;;;;;;;;;18.04;nan;102212.91;5051903;28;19921;-82
2023/05/05 01:32:55;;;;;;;;;;;;;;;18.03;nan;102214.78;5046314;28;19972;-82
2023/05/05 01:35:31;;;;;;;;;;;;;;;18.02;nan;102217.78;5052589;28;19928;-82
2023/05/05 01:38:08;;;;;;;;;;;;;;;18.01;nan;102214.25;5052312;28;19924;-82
2023/05/05 01:40:37;;;;;;;;;;;;;;;17.98;nan;102216.66;5051627;28;20023;-82
2023/05/05 01:43:05;;;;;;;;;;;;;;;17.94;nan;102210.94;5059418;28;19929;-82
2023/05/05 01:45:32;;;;;;;;;;;;;;;17.93;nan;102216.63;5060154;28;20405;-82
2023/05/05 01:47:57;;;;;;;;;;;;;;;17.90;nan;102223.38;5056704;28;19917;-82
2023/05/05 01:50:24;;;;;;;;;;;;;;;17.89;nan;102221.75;5055090;28;20020;-82
2023/05/05 01:52:50;;;;;;;;;;;;;;;17.88;nan;102222.00;5052079;28;20349;-82
2023/05/05 01:55:17;;;;;;;;;;;;;;;17.86;nan;102216.84;5057625;28;19920;-82
2023/05/05 01:57:44;;;;;;;;;;;;;;;17.86;nan;102221.47;5049220;28;20699;-82
2023/05/05 02:00:10;;;;;;;;;;;;;;;17.87;nan;102217.66;5054104;28;19997;-82
2023/05/05 02:02:36;;;;;;;;;;;;;;;17.84;nan;102212.78;5058946;28;19927;-82
2023/05/05 02:05:02;;;;;;;;;;;;;;;17.79;nan;102213.56;5053367;28;19917;-81
2023/05/05 02:07:29;;;;;;;;;;;;;;;17.78;nan;102215.47;5057110;28;19939;-82
2023/05/05 02:09:55;;;;;;;;;;;;;;;17.79;nan;102218.97;5056506;28;20402;-82
2023/05/05 02:12:21;;;;;;;;;;;;;;;17.79;nan;102219.81;5054778;28;20284;-82
2023/05/05 02:14:47;;;;;;;;;;;;;;;17.82;nan;102215.75;5060717;28;20008;-82
2023/05/05 02:17:14;;;;;;;;;;;;;;;17.81;nan;102220.34;5052695;28;20876;-82
2023/05/05 02:19:41;;;;;;;;;;;;;;;17.79;nan;102208.97;5052241;28;19920;-82
2023/05/05 02:22:07;;;;;;;;;;;;;;;17.78;nan;102210.03;5053321;28;19921;-82
2023/05/05 02:24:33;;;;;;;;;;;;;;;17.74;nan;102210.78;5052177;28;20030;-82
2023/05/05 02:26:59;;;;;;;;;;;;;;;17.74;nan;102210.78;5050322;28;19920;-82
2023/05/05 02:29:34;;;;;;;;;;;;;;;17.76;nan;102206.75;5054026;28;20267;-82
2023/05/05 02:32:06;;;;;;;;;;;;;;;17.75;nan;102207.81;5052391;28;19928;-82
2023/05/05 02:34:35;;;;;;;;;;;;;;;17.73;nan;102207.28;5058523;28;19920;-82
2023/05/05 02:37:03;;;;;;;;;;;;;;;17.69;nan;102217.00;5054484;28;19920;-82
2023/05/05 02:39:30;;;;;;;;;;;;;;;17.64;nan;102222.38;5048087;28;20386;-83
2023/05/05 02:41:56;;;;;;;;;;;;;;;17.65;nan;102217.75;5035313;28;19925;-81
2023/05/05 02:44:23;;;;;;;;;;;;;;;17.65;nan;102212.34;5056559;28;19916;-82
2023/05/05 02:46:49;;;;;;;;;;;;;;;17.61;nan;102206.63;5053356;28;20007;-82
2023/05/05 02:49:15;;;;;;;;;;;;;;;17.59;nan;102203.34;5055292;28;19964;-81
2023/05/05 02:51:40;;;;;;;;;;;;;;;17.58;nan;102209.81;5051117;28;20342;-81
2023/05/05 02:54:06;;;;;;;;;;;;;;;17.56;nan;102211.97;5059831;28;19925;-82
2023/05/05 02:56:36;;;;;;;;;;;;;;;17.57;nan;102213.63;5053922;28;19921;-82
2023/05/05 02:59:16;;;;;;;;;;;;;;;17.54;nan;102208.72;5058865;28;19952;-82
2023/05/05 03:01:45;;;;;;;;;;;;;;;17.50;nan;102211.13;5049778;28;20548;-82
2023/05/05 03:04:14;;;;;;;;;;;;;;;17.48;nan;102210.59;5057342;28;19917;-82
2023/05/05 03:06:41;;;;;;;;;;;;;;;17.49;nan;102211.41;5053314;28;20521;-82
2023/05/05 03:09:13;;;;;;;;;;;;;;;17.48;nan;102215.19;5047034;28;21784;-82
2023/05/05 03:11:42;;;;;;;;;;;;;;;17.50;nan;102221.16;5055967;28;19921;-82
2023/05/05 03:14:10;;;;;;;;;;;;;;;17.55;nan;102213.06;5057724;28;19960;-82
2023/05/05 03:16:37;;;;;;;;;;;;;;;17.53;nan;102224.16;5057326;28;19975;-82
2023/05/05 03:19:03;;;;;;;;;;;;;;;17.50;nan;102221.97;5052060;28;19921;-82
2023/05/05 03:21:31;;;;;;;;;;;;;;;17.45;nan;102211.09;5053180;28;19917;-81
2023/05/05 03:23:57;;;;;;;;;;;;;;;17.41;nan;102215.38;5053319;28;20378;-82
2023/05/05 03:26:23;;;;;;;;;;;;;;;17.39;nan;102214.00;5051673;28;19932;-82
2023/05/05 03:28:48;;;;;;;;;;;;;;;17.35;nan;102213.72;5055439;28;19924;-82
2023/05/05 03:31:14;;;;;;;;;;;;;;;17.31;nan;102219.91;5053343;28;19925;-82
2023/05/05 03:33:39;;;;;;;;;;;;;;;17.29;nan;102227.47;5053235;28;20379;-82
2023/05/05 03:36:05;;;;;;;;;;;;;;;17.28;nan;102229.38;5052806;28;20082;-83
2023/05/05 03:38:30;;;;;;;;;;;;;;;17.29;nan;102236.44;5056871;28;19947;-82
2023/05/05 03:40:56;;;;;;;;;;;;;;;17.29;nan;102238.31;5051124;28;19925;-82
2023/05/05 03:43:21;;;;;;;;;;;;;;;17.27;nan;102226.94;5055543;28;19921;-82
2023/05/05 03:45:47;;;;;;;;;;;;;;;17.29;nan;102225.59;5053703;28;19917;-83
2023/05/05 03:48:12;;;;;;;;;;;;;;;17.26;nan;102230.72;5056808;28;19923;-83
2023/05/05 03:50:37;;;;;;;;;;;;;;;17.26;nan;102225.28;5053394;28;19928;-83
2023/05/05 03:53:02;;;;;;;;;;;;;;;17.27;nan;102224.22;5025619;28;19917;-82
2023/05/05 03:55:28;;;;;;;;;;;;;;;17.25;nan;102224.47;5053182;28;19927;-82
2023/05/05 03:57:53;;;;;;;;;;;;;;;17.26;nan;102219.88;5051360;28;19925;-82
2023/05/05 04:00:18;;;;;;;;;;;;;;;17.26;nan;102225.28;5047041;28;19953;-82
2023/05/05 04:02:44;;;;;;;;;;;;;;;17.22;nan;102217.66;5056075;28;19964;-82
2023/05/05 04:05:09;;;;;;;;;;;;;;;17.24;nan;102224.72;5049303;28;20389;-84
2023/05/05 04:07:35;;;;;;;;;;;;;;;17.22;nan;102225.78;5051908;28;19917;-83
2023/05/05 04:10:00;;;;;;;;;;;;;;;17.24;nan;102233.69;5048592;28;19920;-84
2023/05/05 04:12:25;;;;;;;;;;;;;;;17.25;nan;102223.66;5052933;28;19955;-81
2023/05/05 04:14:51;;;;;;;;;;;;;;;17.26;nan;102231.53;5056384;28;19916;-82
2023/05/05 04:17:16;;;;;;;;;;;;;;;17.24;nan;102230.97;5047366;28;19939;-82
2023/05/05 04:19:41;;;;;;;;;;;;;;;17.26;nan;102230.72;5050251;28;19917;-83
2023/05/05 04:22:07;;;;;;;;;;;;;;;17.27;nan;102241.28;5034655;28;20041;-82
2023/05/05 04:24:32;;;;;;;;;;;;;;;17.31;nan;102236.97;5054921;28;20004;-83
2023/05/05 04:26:58;;;;;;;;;;;;;;;17.33;nan;102244.84;5034845;28;20018;-83
2023/05/05 04:29:23;;;;;;;;;;;;;;;17.32;nan;102245.94;5050194;28;19959;-83
2023/05/05 04:31:49;;;;;;;;;;;;;;;17.33;nan;102255.69;5043946;28;19920;-84
2023/05/05 04:34:15;;;;;;;;;;;;;;;17.34;nan;102244.59;5046891;28;19960;-82
2023/05/05 04:36:40;;;;;;;;;;;;;;;17.40;nan;102256.28;5051188;28;19917;-83
2023/05/05 04:39:06;;;;;;;;;;;;;;;17.43;nan;102253.09;5049989;28;19939;-83
2023/05/05 04:41:31;;;;;;;;;;;;;;;17.48;nan;102262.06;5041714;28;20508;-83
2023/05/05 04:43:57;;;;;;;;;;;;;;;17.54;nan;102265.63;5046218;28;19917;-83
2023/05/05 04:46:23;;;;;;;;;;;;;;;17.61;nan;102262.72;5055822;28;19927;-83
2023/05/05 04:48:48;;;;;;;;;;;;;;;17.65;nan;102259.22;5049001;28;20000;-83
2023/05/05 04:51:14;;;;;;;;;;;;;;;17.67;nan;102267.91;5047883;28;20008;-83
2023/05/05 04:53:39;;;;;;;;;;;;;;;17.70;nan;102272.03;5048151;28;19995;-81
2023/05/05 04:56:05;;;;;;;;;;;;;;;17.71;nan;102273.66;5047068;28;19955;-82
2023/05/05 04:58:30;;;;;;;;;;;;;;;17.75;nan;102270.16;5038477;28;19924;-82
2023/05/05 05:00:55;;;;;;;;;;;;;;;17.79;nan;102268.59;5050319;28;19978;-82
2023/05/05 05:03:21;;;;;;;;;;;;;;;17.83;nan;102273.50;5047770;28;19960;-82
2023/05/05 05:05:46;;;;;;;;;;;;;;;17.88;nan;102270.81;5055794;28;19983;-82
2023/05/05 05:08:13;;;;;;;;;;;;;;;17.90;nan;102274.09;5053330;28;19917;-83
2023/05/05 05:10:38;;;;;;;;;;;;;;;17.93;nan;102274.38;5044459;28;20047;-83
2023/05/05 05:13:03;;;;;;;;;;;;;;;18.01;nan;102273.09;5048770;28;20516;-82
2023/05/05 05:15:29;;;;;;;;;;;;;;;18.08;nan;102270.94;5031037;28;19920;-82
2023/05/05 05:17:54;;;;;;;;;;;;;;;18.17;nan;102268.59;5053927;28;19927;-84
2023/05/05 05:20:19;;;;;;;;;;;;;;;18.23;nan;102276.47;5059134;28;20000;-83
2023/05/05 05:22:45;;;;;;;;;;;;;;;18.30;nan;102276.25;5051262;28;19920;-83
2023/05/05 05:25:10;;;;;;;;;;;;;;;18.39;nan;102280.09;5051280;28;19924;-83
2023/05/05 05:27:35;;;;;;;;;;;;;;;18.44;nan;102282.84;5049761;28;19924;-83
2023/05/05 05:30:01;;;;;;;;;;;;;;;18.50;nan;102275.56;5036621;28;20560;-83
2023/05/05 05:32:27;;;;;;;;;;;;;;;18.53;nan;102277.75;5052110;28;20267;-84
2023/05/05 05:34:52;;;;;;;;;;;;;;;18.55;nan;102278.28;5050088;28;19992;-84
2023/05/05 05:37:18;;;;;;;;;;;;;;;18.56;nan;102271.78;5052591;28;19917;-82
2023/05/05 05:39:43;;;;;;;;;;;;;;;18.53;nan;102270.41;5050901;28;19917;-83
2023/05/05 05:42:08;;;;;;;;;;;;;;;18.54;nan;102277.47;5050643;28;19934;-82
2023/05/05 05:44:34;;;;;;;;;;;;;;;18.56;nan;102282.63;5046149;28;19924;-84
2023/05/05 05:46:59;;;;;;;;;;;;;;;18.59;nan;102276.66;5048846;28;20449;-83
2023/05/05 05:49:24;;;;;;;;;;;;;;;18.64;nan;102271.28;5045785;28;20051;-82
2023/05/05 05:51:50;;;;;;;;;;;;;;;18.66;nan;102282.69;5045555;28;20287;-84
2023/05/05 05:54:15;;;;;;;;;;;;;;;18.66;nan;102282.69;5041332;28;20843;-83
2023/05/05 05:56:40;;;;;;;;;;;;;;;18.68;nan;102284.09;5046818;28;19921;-83
2023/05/05 05:59:09;;;;;;;;;;;;;;;18.72;nan;102284.38;5052193;28;19929;-83
2023/05/05 06:01:34;;;;;;;;;;;;;;;18.78;nan;102277.03;5031798;28;19920;-83
2023/05/05 06:04:00;;;;;;;;;;;;;;;18.81;nan;102288.19;5050244;28;20047;-84
2023/05/05 06:06:26;;;;;;;;;;;;;;;18.85;nan;102275.75;5047539;28;19925;-82
2023/05/05 06:08:52;;;;;;;;;;;;;;;18.92;nan;102279.00;5048317;28;19956;-82
2023/05/05 06:11:17;;;;;;;;;;;;;;;18.99;nan;102282.28;5049189;28;20420;-83
2023/05/05 06:13:42;;;;;;;;;;;;;;;19.00;nan;102278.47;5044320;28;19924;-82
2023/05/05 06:16:08;;;;;;;;;;;;;;;19.07;nan;102283.66;5051577;28;19936;-84
2023/05/05 06:18:33;;;;;;;;;;;;;;;19.13;nan;102287.22;5046122;28;20015;-83
2023/05/05 06:20:59;;;;;;;;;;;;;;;19.27;nan;102291.88;5044742;28;19923;-83
2023/05/05 06:23:24;;;;;;;;;;;;;;;19.45;nan;102295.16;5047751;28;19920;-83
2023/05/05 06:25:49;;;;;;;;;;;;;;;19.49;nan;102302.50;5047569;28;19917;-82
2023/05/05 06:28:15;;;;;;;;;;;;;;;19.52;nan;102301.13;5044914;28;20049;-82
2023/05/05 06:30:40;;;;;;;;;;;;;;;19.53;nan;102313.63;5042227;28;20278;-83
2023/05/05 06:33:05;;;;;;;;;;;;;;;19.60;nan;102315.06;5054219;28;19964;-83
2023/05/05 06:35:31;;;;;;;;;;;;;;;19.68;nan;102310.97;5043224;28;19952;-83
2023/05/05 06:37:56;;;;;;;;;;;;;;;19.73;nan;102302.00;5045333;28;20429;-83
2023/05/05 06:40:22;;;;;;;;;;;;;;;19.73;nan;102302.81;5051258;28;19959;-82
2023/05/05 06:42:47;;;;;;;;;;;;;;;19.75;nan;102307.97;5037307;28;19924;-82
2023/05/05 06:45:12;;;;;;;;;;;;;;;19.77;nan;102311.25;5036484;28;19924;-81
2023/05/05 06:47:38;;;;;;;;;;;;;;;19.86;nan;102313.16;5051865;28;19927;-82
2023/05/05 06:50:04;;;;;;;;;;;;;;;19.96;nan;102320.50;5030882;28;19928;-83
2023/05/05 06:52:29;;;;;;;;;;;;;;;20.01;nan;102320.50;5046296;28;19924;-82
2023/05/05 06:54:55;;;;;;;;;;;;;;;20.08;nan;102317.47;5051159;28;20498;-83
2023/05/05 06:57:20;;;;;;;;;;;;;;;20.15;nan;102318.84;5052932;28;20524;-83
2023/05/05 06:59:45;;;;;;;;;;;;;;;20.26;nan;102324.25;5046567;28;20567;-83
2023/05/05 07:02:10;;;;;;;;;;;;;;;20.41;nan;102324.25;5046679;28;19924;-83
2023/05/05 07:04:36;;;;;;;;;;;;;;;20.57;nan;102320.41;5048464;28;19927;-83
2023/05/05 07:07:02;;;;;;;;;;;;;;;20.71;nan;102310.56;5046713;28;19978;-83
2023/05/05 07:09:27;;;;;;;;;;;;;;;20.73;nan;102316.53;5053639;28;19917;-80
2023/05/05 07:11:52;;;;;;;;;;;;;;;20.81;nan;102320.59;5040386;28;19931;-83
2023/05/05 07:14:18;;;;;;;;;;;;;;;20.84;nan;102311.06;5048050;28;19951;-83
2023/05/05 07:16:43;;;;;;;;;;;;;;;20.85;nan;102307.25;5046214;28;19963;-83
2023/05/05 07:19:08;;;;;;;;;;;;;;;20.86;nan;102315.13;5049669;28;19963;-84
2023/05/05 07:21:34;;;;;;;;;;;;;;;20.92;nan;102305.03;5045158;28;19932;-81
2023/05/05 07:24:01;;;;;;;;;;;;;;;20.98;nan;102307.44;5050436;28;19917;-82
2023/05/05 07:26:26;;;;;;;;;;;;;;;21.05;nan;102315.31;5047930;28;20306;-82
2023/05/05 07:28:53;;;;;;;;;;;;;;;21.03;nan;102304.69;5045748;28;19917;-81
2023/05/05 07:31:21;;;;;;;;;;;;;;;21.02;nan;102308.53;5047738;28;21351;-83
2023/05/05 07:33:46;;;;;;;;;;;;;;;21.00;nan;102302.50;5027575;28;20046;-82
2023/05/05 07:36:12;;;;;;;;;;;;;;;21.05;nan;102304.41;5026466;28;19927;-82
2023/05/05 07:38:37;;;;;;;;;;;;;;;21.05;nan;102315.31;5043949;28;20548;-82
2023/05/05 07:41:03;;;;;;;;;;;;;;;20.97;nan;102294.09;5045054;28;19917;-82
2023/05/05 07:43:28;;;;;;;;;;;;;;;20.96;nan;102297.91;5051238;28;19924;-82
2023/05/05 07:45:54;;;;;;;;;;;;;;;20.93;nan;102298.47;5050376;28;19927;-81
2023/05/05 07:48:19;;;;;;;;;;;;;;;20.91;nan;102306.94;5065302;28;19968;-82
2023/05/05 07:50:45;;;;;;;;;;;;;;;20.94;nan;102300.09;5054106;28;20003;-83
2023/05/05 07:53:10;;;;;;;;;;;;;;;21.01;nan;102296.00;5062225;28;19956;-82
2023/05/05 07:55:35;;;;;;;;;;;;;;;21.16;nan;102296.97;5057033;28;20365;-83
2023/05/05 07:58:02;;;;;;;;;;;;;;;21.33;nan;102302.91;5057128;28;19917;-81
2023/05/05 08:00:28;;;;;;;;;;;;;;;21.44;nan;102298.22;5048357;28;19917;-81
2023/05/05 08:02:53;;;;;;;;;;;;;;;21.49;nan;102307.16;5051629;28;20019;-82
2023/05/05 08:05:18;;;;;;;;;;;;;;;21.59;nan;102309.81;5049478;28;19920;-82
2023/05/05 08:07:44;;;;;;;;;;;;;;;21.62;nan;102316.63;5021612;28;19917;-81
2023/05/05 08:10:10;;;;;;;;;;;;;;;21.58;nan;102318.28;5064980;28;19916;-82
2023/05/05 08:12:36;;;;;;;;;;;;;;;21.58;nan;102315.56;5050029;28;19956;-80
2023/05/05 08:15:01;;;;;;;;;;;;;;;21.65;nan;102310.59;5052233;28;19928;-82
2023/05/05 08:17:26;;;;;;;;;;;;;;;21.69;nan;102317.91;5053199;28;19939;-83
2023/05/05 08:19:52;;;;;;;;;;;;;;;21.73;nan;102328.28;5045817;28;20282;-83
2023/05/05 08:22:17;;;;;;;;;;;;;;;21.74;nan;102324.44;5049795;28;19917;-83
2023/05/05 08:24:43;;;;;;;;;;;;;;;21.83;nan;102325.44;5050190;28;19959;-82
2023/05/05 08:27:08;;;;;;;;;;;;;;;21.91;nan;102336.59;5051631;28;19920;-81
2023/05/05 08:29:33;;;;;;;;;;;;;;;22.00;nan;102334.84;5056092;28;19916;-85
2023/05/05 08:31:58;;;;;;;;;;;;;;;22.12;nan;102341.88;5050344;28;19936;-85
2023/05/05 08:34:24;;;;;;;;;;;;;;;22.18;nan;102332.53;5050270;28;19916;-84
2023/05/05 08:36:49;;;;;;;;;;;;;;;22.25;nan;102331.09;5051367;28;19988;-86
2023/05/05 08:39:15;;;;;;;;;;;;;;;22.37;nan;102327.97;5054398;28;20004;-83
2023/05/05 08:41:41;;;;;;;;;;;;;;;22.50;nan;102326.47;5054037;28;20428;-84
2023/05/05 08:44:06;;;;;;;;;;;;;;;22.59;nan;102333.72;5050513;28;19931;-84
2023/05/05 08:46:32;;;;;;;;;;;;;;;22.63;nan;102335.91;5052716;28;19917;-85
2023/05/05 08:48:58;;;;;;;;;;;;;;;22.70;nan;102336.34;5050467;28;20409;-83
2023/05/05 08:51:25;;;;;;;;;;;;;;;22.73;nan;102338.50;5033378;28;19920;-84
2023/05/05 08:53:56;;;;;;;;;;;;;;;22.78;nan;102332.97;5050092;28;19966;-85
2023/05/05 08:56:24;;;;;;;;;;;;;;;22.81;nan;102318.75;5051900;28;19999;-83
2023/05/05 08:58:50;;;;;;;;;;;;;;;22.90;nan;102331.47;5050688;28;19921;-84
2023/05/05 09:01:15;;;;;;;;;;;;;;;23.02;nan;102333.78;5062455;28;19923;-85
2023/05/05 09:03:41;;;;;;;;;;;;;;;23.18;nan;102327.00;5050776;28;19968;-85
2023/05/05 09:06:06;;;;;;;;;;;;;;;23.38;nan;102325.09;5050590;28;19925;-84
2023/05/05 09:08:32;;;;;;;;;;;;;;;23.51;nan;102324.31;5049857;28;19917;-85
2023/05/05 09:10:59;;;;;;;;;;;;;;;23.66;nan;102326.03;5056395;28;19917;-85
2023/05/05 09:13:24;;;;;;;;;;;;;;;23.83;nan;102328.22;5043672;28;20436;-85
2023/05/05 09:15:50;;;;;;;;;;;;;;;23.93;nan;102328.06;5049287;28;19916;-84
2023/05/05 09:18:15;;;;;;;;;;;;;;;23.98;nan;102314.28;5050569;28;19916;-85
2023/05/05 09:20:40;;;;;;;;;;;;;;;24.09;nan;102313.81;5048642;28;20348;-84
2023/05/05 09:23:15;;;;;;;;;;;;;;;24.22;nan;102309.44;5051562;28;19921;-85
2023/05/05 09:25:42;;;;;;;;;;;;;;;24.36;nan;102313.06;5051345;28;19963;-84
2023/05/05 09:28:09;;;;;;;;;;;;;;;24.41;nan;102317.63;5050910;28;20837;-84
2023/05/05 09:30:35;;;;;;;;;;;;;;;24.33;nan;102310.13;5050247;28;19917;-86
2023/05/05 09:33:01;;;;;;;;;;;;;;;24.28;nan;102313.75;5053219;28;19925;-84
2023/05/05 09:35:26;;;;;;;;;;;;;;;24.28;nan;102310.19;5056181;28;19916;-84
2023/05/05 09:37:52;;;;;;;;;;;;;;;24.28;nan;102316.47;5051977;28;19921;-83
2023/05/05 09:40:18;;;;;;;;;;;;;;;24.35;nan;102319.66;5044938;28;19966;-85
2023/05/05 09:42:43;;;;;;;;;;;;;;;24.44;nan;102302.53;5046154;28;20312;-84
2023/05/05 09:45:18;;;;;;;;;;;;;;;24.58;nan;102308.78;5050862;28;19962;-85
2023/05/05 09:47:46;;;;;;;;;;;;;;;24.69;nan;102311.03;5052107;28;19916;-85
2023/05/05 09:50:17;;;;;;;;;;;;;;;24.77;nan;102306.75;5047075;28;19920;-85
2023/05/05 09:52:52;;;;;;;;;;;;;;;24.81;nan;102321.47;5050803;28;19959;-83
2023/05/05 09:55:18;;;;;;;;;;;;;;;24.84;nan;102314.56;5052225;28;20015;-84
2023/05/05 09:57:43;;;;;;;;;;;;;;;24.94;nan;102311.59;5034030;28;20008;-84
2023/05/05 10:00:10;;;;;;;;;;;;;;;25.06;nan;102322.06;5048867;28;20556;-84
2023/05/05 10:02:37;;;;;;;;;;;;;;;25.17;nan;102323.47;5057937;28;19995;-84
2023/05/05 10:05:07;;;;;;;;;;;;;;;25.22;nan;102315.13;5050039;28;20000;-84
2023/05/05 10:07:32;;;;;;;;;;;;;;;25.24;nan;102321.09;5053008;28;19924;-83
2023/05/05 10:09:58;;;;;;;;;;;;;;;25.25;nan;102312.56;5063598;28;19920;-84
2023/05/05 10:12:24;;;;;;;;;;;;;;;25.22;nan;102312.38;5070053;28;20015;-84
2023/05/05 10:14:51;;;;;;;;;;;;;;;25.20;nan;102314.63;5054747;28;20003;-84
2023/05/05 10:17:18;;;;;;;;;;;;;;;25.07;nan;102316.28;5053380;28;20366;-84
2023/05/05 10:19:44;;;;;;;;;;;;;;;25.09;nan;102318.72;5051199;28;19920;-84
2023/05/05 10:22:09;;;;;;;;;;;;;;;25.13;nan;102319.72;5056244;28;19917;-84
2023/05/05 10:24:35;;;;;;;;;;;;;;;25.08;nan;102317.09;5048095;28;19917;-84
2023/05/05 10:27:02;;;;;;;;;;;;;;;24.88;nan;102308.16;5051052;28;20007;-84
2023/05/05 10:29:30;;;;;;;;;;;;;;;24.83;nan;102310.22;5048009;28;19968;-83
2023/05/05 10:32:01;;;;;;;;;;;;;;;24.94;nan;102306.09;5057859;28;19921;-84
2023/05/05 10:34:36;;;;;;;;;;;;;;;25.06;nan;102303.69;5050577;28;20429;-83
2023/05/05 10:37:03;;;;;;;;;;;;;;;25.21;nan;102294.31;5064221;28;19986;-84
2023/05/05 10:39:30;;;;;;;;;;;;;;;25.32;nan;102290.22;5066754;28;19994;-84
2023/05/05 10:41:58;;;;;;;;;;;;;;;25.35;nan;102289.59;5056589;28;19916;-84
2023/05/05 10:44:23;;;;;;;;;;;;;;;25.30;nan;102286.94;5051705;28;19917;-84
2023/05/05 10:46:49;;;;;;;;;;;;;;;25.40;nan;102285.91;5053415;28;20000;-84
2023/05/05 10:49:14;;;;;;;;;;;;;;;25.38;nan;102283.47;5051555;28;19916;-84
2023/05/05 10:51:51;;;;;;;;;;;;;;;25.47;nan;102289.81;5058982;28;19921;-84
2023/05/05 10:54:36;;;;;;;;;;;;;;;25.57;nan;102291.50;5052001;28;19924;-83
2023/05/05 10:57:03;;;;;;;;;;;;;;;25.69;nan;102288.25;5057970;28;19924;-84
2023/05/05 10:59:35;;;;;;;;;;;;;;;25.80;nan;102287.66;5053497;28;19917;-84
2023/05/05 11:02:00;;;;;;;;;;;;;;;25.96;nan;102288.06;5051964;28;19932;-84
2023/05/05 11:04:26;;;;;;;;;;;;;;;26.06;nan;102271.34;5058709;28;20478;-84
2023/05/05 11:07:06;;;;;;;;;;;;;;;26.11;nan;102278.63;5053965;28;19917;-84
2023/05/05 11:09:32;;;;;;;;;;;;;;;26.33;nan;102277.72;5046838;28;19916;-84
2023/05/05 11:12:01;;;;;;;;;;;;;;;26.54;nan;102276.03;5050659;28;19928;-84
2023/05/05 11:14:27;;;;;;;;;;;;;;;26.69;nan;102277.53;5049384;28;19947;-84
2023/05/05 11:16:53;;;;;;;;;;;;;;;26.69;nan;102274.78;5038872;28;20015;-84
2023/05/05 11:19:37;;;;;;;;;;;;;;;26.72;nan;102265.88;5051690;28;20556;-83
2023/05/05 11:22:03;;;;;;;;;;;;;;;26.78;nan;102264.63;5057426;28;19912;-84
2023/05/05 11:24:30;;;;;;;;;;;;;;;26.83;nan;102264.47;5054588;28;19963;-84
2023/05/05 11:26:56;;;;;;;;;;;;;;;26.88;nan;102252.50;5051001;28;19917;-84
2023/05/05 11:29:21;;;;;;;;;;;;;;;26.96;nan;102268.19;5051320;28;20032;-85
2023/05/05 11:32:06;;;;;;;;;;;;;;;27.02;nan;102264.19;5055208;28;20401;-84
2023/05/05 11:34:32;;;;;;;;;;;;;;;26.97;nan;102262.38;5052175;28;19916;-83
2023/05/05 11:37:03;;;;;;;;;;;;;;;26.92;nan;102267.22;5051601;28;19917;-84
2023/05/05 11:39:37;;;;;;;;;;;;;;;26.94;nan;102263.03;5055266;28;19924;-83
2023/05/05 11:42:23;;;;;;;;;;;;;;;27.02;nan;102258.69;5050568;28;19917;-84
2023/05/05 11:44:48;;;;;;;;;;;;;;;27.13;nan;102253.69;5047682;28;20423;-84
2023/05/05 11:47:14;;;;;;;;;;;;;;;27.09;nan;102259.00;5054093;28;20023;-84
2023/05/05 11:49:39;;;;;;;;;;;;;;;26.99;nan;102251.06;5059300;28;19916;-84
2023/05/05 11:52:05;;;;;;;;;;;;;;;26.98;nan;102253.00;5053876;28;19921;-84
2023/05/05 11:54:31;;;;;;;;;;;;;;;27.08;nan;102240.88;5054539;28;19920;-85
2023/05/05 11:56:58;;;;;;;;;;;;;;;27.08;nan;102241.69;5061793;28;19936;-84
2023/05/05 11:59:23;;;;;;;;;;;;;;;27.19;nan;102247.69;5050142;28;19917;-84
2023/05/05 12:01:49;;;;;;;;;;;;;;;27.24;nan;102246.69;5052542;28;19923;-85
2023/05/05 12:04:14;;;;;;;;;;;;;;;27.27;nan;102237.78;5056643;28;19970;-84
2023/05/05 12:06:40;;;;;;;;;;;;;;;27.36;nan;102249.59;5051372;28;20622;-83
2023/05/05 12:09:06;;;;;;;;;;;;;;;27.45;nan;102233.06;5057223;28;19923;-84
2023/05/05 12:11:31;;;;;;;;;;;;;;;27.54;nan;102231.94;5050440;28;20340;-85
2023/05/05 12:14:07;;;;;;;;;;;;;;;27.64;nan;102226.09;5050290;28;19920;-84
2023/05/05 12:16:32;;;;;;;;;;;;;;;27.78;nan;102220.38;5067913;28;19924;-85
2023/05/05 12:19:04;;;;;;;;;;;;;;;27.73;nan;102217.81;5056211;28;19991;-84
2023/05/05 12:21:30;;;;;;;;;;;;;;;27.78;nan;102216.81;5063725;28;19928;-85
2023/05/05 12:23:55;;;;;;;;;;;;;;;27.86;nan;102222.31;5056637;28;20293;-83
2023/05/05 12:26:28;;;;;;;;;;;;;;;27.92;nan;102220.16;5068800;28;19924;-84
2023/05/05 12:28:57;;;;;;;;;;;;;;;27.95;nan;102217.56;5052440;28;19992;-84
2023/05/05 12:31:33;;;;;;;;;;;;;;;27.95;nan;102220.31;5027877;28;19920;-85
2023/05/05 12:33:59;;;;;;;;;;;;;;;27.81;nan;102214.19;5058739;28;19996;-83
2023/05/05 12:36:24;;;;;;;;;;;;;;;27.85;nan;102206.91;5051879;28;19940;-84
2023/05/05 12:38:50;;;;;;;;;;;;;;;27.97;nan;102201.50;5049839;28;19917;-84
2023/05/05 12:41:18;;;;;;;;;;;;;;;28.01;nan;102201.66;5048917;28;19917;-85
2023/05/05 12:43:44;;;;;;;;;;;;;;;27.97;nan;102200.69;5044543;28;19971;-84
2023/05/05 12:46:11;;;;;;;;;;;;;;;27.99;nan;102201.97;5050331;28;19920;-84
2023/05/05 12:48:38;;;;;;;;;;;;;;;28.05;nan;102194.34;5051932;28;19927;-84
2023/05/05 12:51:12;;;;;;;;;;;;;;;27.98;nan;102194.84;5056563;28;19916;-84
2023/05/05 12:53:38;;;;;;;;;;;;;;;28.00;nan;102187.06;5048593;28;19917;-83
2023/05/05 12:56:03;;;;;;;;;;;;;;;28.09;nan;102186.22;5052013;28;19917;-84